Time;durP1;ratioP1;P1;durP2;ratioP2;P2;SDS_P1;SDS_P2;PMS_P1;PMS_P2;Temp;Humidity;BMP_temperature;BMP_pressure;BME280_temperature;BME280_humidity;BME280_pressure;Samples;Min_cycle;Max_cycle;Signal;HPM_P1;HPM_P2
2022/01/14 00:01:46;;;;;;;;;;;21.50;44.20;;;;;;5127714;28;20378;-39
2022/01/14 00:04:14;;;;;;;;;;;21.60;44.30;;;;;;5120187;28;19927;-40
2022/01/14 00:06:41;;;;;;;;;;;21.50;44.20;;;;;;5114240;28;20444;-41
2022/01/14 00:09:10;;;;;;;;;;;21.50;44.20;;;;;;5123536;28;19923;-40
2022/01/14 00:11:44;;;;;;;;;;;21.50;44.20;;;;;;5120084;28;19924;-41
2022/01/14 00:14:22;;;;;;;;;;;21.50;44.20;;;;;;5119550;27;19924;-40
2022/01/14 00:16:52;;;;;;;;;;;21.50;44.20;;;;;;5118037;27;19946;-40
2022/01/14 00:19:19;;;;;;;;;;;21.50;44.20;;;;;;5127913;27;20325;-39
2022/01/14 00:21:46;;;;;;;;;;;21.50;44.30;;;;;;5126652;27;19931;-41
2022/01/14 00:24:27;;;;;;;;;;;21.50;44.30;;;;;;5118714;27;19935;-40
2022/01/14 00:34:57;;;;;;;;;;;21.50;44.30;;;;;;5117855;27;20425;-41
2022/01/14 00:37:24;;;;;;;;;;;21.50;44.30;;;;;;5116638;28;19924;-40
2022/01/14 00:39:51;;;;;;;;;;;21.50;44.30;;;;;;5119559;27;19973;-40
2022/01/14 00:42:18;;;;;;;;;;;21.50;44.30;;;;;;5100764;28;19927;-40
2022/01/14 00:44:45;;;;;;;;;;;21.50;44.30;;;;;;5118394;27;19923;-41
2022/01/14 00:47:12;;;;;;;;;;;21.50;44.30;;;;;;5118390;27;20383;-39
2022/01/14 00:49:44;;;;;;;;;;;21.50;44.30;;;;;;5117774;27;19928;-41
2022/01/14 00:52:10;;;;;;;;;;;21.50;44.30;;;;;;5119207;27;20325;-41
2022/01/14 00:54:38;;;;;;;;;;;21.50;44.30;;;;;;5117701;27;19924;-41
2022/01/14 00:59:35;;;;;;;;;;;21.50;44.40;;;;;;5131647;27;19974;-39
2022/01/14 01:02:02;;;;;;;;;;;21.40;44.30;;;;;;5116263;28;19932;-39
2022/01/14 01:04:33;;;;;;;;;;;21.50;44.40;;;;;;5117419;27;20362;-40
2022/01/14 01:07:02;;;;;;;;;;;21.40;44.30;;;;;;5133874;27;19923;-39
2022/01/14 01:09:30;;;;;;;;;;;21.50;44.40;;;;;;5117604;27;19924;-39
2022/01/14 01:14:44;;;;;;;;;;;21.40;44.30;;;;;;5116636;28;19932;-41
2022/01/14 01:17:11;;;;;;;;;;;21.40;44.30;;;;;;5116422;28;19928;-41
2022/01/14 01:19:38;;;;;;;;;;;21.40;44.40;;;;;;5135869;27;19988;-39
2022/01/14 01:22:05;;;;;;;;;;;21.40;44.40;;;;;;5115886;28;19923;-40
2022/01/14 01:24:33;;;;;;;;;;;21.40;44.40;;;;;;5116266;27;19973;-41
2022/01/14 01:27:06;;;;;;;;;;;21.40;44.40;;;;;;5118049;27;20313;-39
2022/01/14 01:29:49;;;;;;;;;;;21.40;44.40;;;;;;5117026;27;19923;-40
2022/01/14 01:32:16;;;;;;;;;;;21.40;44.40;;;;;;5115878;28;20294;-40
2022/01/14 01:34:43;;;;;;;;;;;21.40;44.40;;;;;;5117195;27;20002;-42
2022/01/14 01:37:11;;;;;;;;;;;21.40;44.40;;;;;;5117238;27;19923;-40
2022/01/14 01:39:37;;;;;;;;;;;21.40;44.50;;;;;;5116818;27;19931;-41
2022/01/14 01:42:09;;;;;;;;;;;21.40;44.50;;;;;;5116640;27;19975;-40
2022/01/14 01:44:38;;;;;;;;;;;21.40;44.50;;;;;;5117943;27;19969;-39
2022/01/14 01:47:05;;;;;;;;;;;21.40;44.50;;;;;;5115463;28;19924;-43
2022/01/14 01:49:34;;;;;;;;;;;21.40;44.50;;;;;;5116513;27;20371;-39
2022/01/14 01:52:02;;;;;;;;;;;21.40;44.50;;;;;;5116274;27;20375;-41
2022/01/14 01:54:29;;;;;;;;;;;21.40;44.50;;;;;;5118026;27;20010;-40
2022/01/14 01:56:56;;;;;;;;;;;21.40;44.50;;;;;;5114972;27;20440;-41
2022/01/14 01:59:24;;;;;;;;;;;21.40;44.50;;;;;;5116891;27;19928;-41
2022/01/14 02:01:52;;;;;;;;;;;21.40;44.50;;;;;;5115453;28;19924;-39
2022/01/14 02:04:19;;;;;;;;;;;21.40;44.50;;;;;;5115571;27;19977;-39
2022/01/14 02:06:46;;;;;;;;;;;21.40;44.50;;;;;;5116272;27;19973;-43
2022/01/14 02:09:14;;;;;;;;;;;21.40;44.50;;;;;;5115556;27;19947;-39
2022/01/14 02:11:41;;;;;;;;;;;21.40;44.50;;;;;;5119952;27;20317;-40
2022/01/14 02:14:25;;;;;;;;;;;21.30;44.50;;;;;;5134242;27;19966;-39
2022/01/14 02:17:28;;;;;;;;;;;21.30;44.50;;;;;;5128184;27;20379;-39
2022/01/14 02:22:49;;;;;;;;;;;21.30;44.50;;;;;;5114575;28;19928;-40
2022/01/14 02:25:23;;;;;;;;;;;21.30;44.50;;;;;;5117086;27;19923;-38
2022/01/14 02:27:50;;;;;;;;;;;21.30;44.50;;;;;;5116987;27;19923;-39
2022/01/14 02:30:17;;;;;;;;;;;21.30;44.50;;;;;;5114560;28;19923;-41
2022/01/14 02:32:44;;;;;;;;;;;21.30;44.50;;;;;;5115953;27;19976;-39
2022/01/14 02:35:11;;;;;;;;;;;21.30;44.50;;;;;;5122191;27;19976;-43
2022/01/14 02:37:42;;;;;;;;;;;21.30;44.50;;;;;;5126056;27;19932;-42
2022/01/14 02:40:09;;;;;;;;;;;21.30;44.50;;;;;;5114659;28;19931;-41
2022/01/14 02:42:36;;;;;;;;;;;21.30;44.60;;;;;;5116630;27;19924;-40
2022/01/14 02:45:07;;;;;;;;;;;21.30;44.50;;;;;;5114607;28;19973;-39
2022/01/14 02:47:34;;;;;;;;;;;21.30;44.50;;;;;;5118898;27;19927;-42
2022/01/14 02:50:01;;;;;;;;;;;21.30;44.60;;;;;;5129419;27;19924;-41
2022/01/14 02:52:41;;;;;;;;;;;21.30;44.50;;;;;;5115107;27;19973;-42
2022/01/14 02:55:21;;;;;;;;;;;21.30;44.60;;;;;;5115799;27;19923;-41
2022/01/14 02:57:52;;;;;;;;;;;21.30;44.60;;;;;;5119500;27;19972;-41
2022/01/14 03:00:20;;;;;;;;;;;21.30;44.60;;;;;;5126833;27;19927;-39
2022/01/14 03:02:49;;;;;;;;;;;21.30;44.60;;;;;;5115785;27;19923;-40
2022/01/14 03:05:17;;;;;;;;;;;21.30;44.60;;;;;;5114369;27;19928;-43
2022/01/14 03:07:44;;;;;;;;;;;21.30;44.60;;;;;;5115330;27;19963;-41
2022/01/14 03:10:12;;;;;;;;;;;21.30;44.70;;;;;;5132086;27;19972;-40
2022/01/14 03:12:40;;;;;;;;;;;21.30;44.70;;;;;;5114373;27;19949;-40
2022/01/14 03:15:08;;;;;;;;;;;21.30;44.70;;;;;;5133410;27;19924;-40
2022/01/14 03:17:35;;;;;;;;;;;21.30;44.70;;;;;;5133300;27;20402;-40
2022/01/14 03:20:03;;;;;;;;;;;21.30;44.70;;;;;;5131621;27;20382;-42
2022/01/14 03:22:36;;;;;;;;;;;21.30;44.70;;;;;;5115128;27;20279;-42
2022/01/14 03:27:50;;;;;;;;;;;21.20;44.60;;;;;;5113631;28;19924;-41
2022/01/14 03:30:17;;;;;;;;;;;21.20;44.60;;;;;;5113852;28;19924;-41
2022/01/14 03:32:44;;;;;;;;;;;21.30;44.70;;;;;;5117104;27;19927;-42
2022/01/14 03:35:12;;;;;;;;;;;21.20;44.70;;;;;;5115877;27;19963;-39
2022/01/14 03:37:39;;;;;;;;;;;21.20;44.60;;;;;;5113389;28;20424;-40
2022/01/14 03:40:09;;;;;;;;;;;21.20;44.70;;;;;;5116221;27;19988;-43
2022/01/14 03:42:35;;;;;;;;;;;21.20;44.60;;;;;;5116179;27;20337;-39
2022/01/14 03:45:03;;;;;;;;;;;21.20;44.60;;;;;;5114431;27;19924;-42
2022/01/14 03:47:29;;;;;;;;;;;21.20;44.70;;;;;;5125997;27;20320;-39
2022/01/14 03:49:56;;;;;;;;;;;21.20;45.30;;;;;;5119161;28;19924;-40
2022/01/14 03:52:23;;;;;;;;;;;21.20;44.70;;;;;;5115607;28;20329;-39
2022/01/14 03:54:50;;;;;;;;;;;21.20;44.70;;;;;;5114543;28;19969;-41
2022/01/14 03:57:37;;;;;;;;;;;21.20;44.70;;;;;;5113329;28;20015;-40
2022/01/14 04:00:05;;;;;;;;;;;21.20;44.70;;;;;;5113101;28;19927;-40
2022/01/14 04:02:32;;;;;;;;;;;21.20;44.70;;;;;;5114108;28;20057;-40
2022/01/14 04:04:59;;;;;;;;;;;21.20;44.70;;;;;;5115660;28;19924;-40
2022/01/14 04:07:26;;;;;;;;;;;21.20;44.70;;;;;;5121263;28;19924;-40
2022/01/14 04:09:53;;;;;;;;;;;21.20;44.70;;;;;;5130576;28;20435;-39
2022/01/14 04:12:32;;;;;;;;;;;21.20;44.70;;;;;;5126585;28;20290;-45
2022/01/14 04:17:27;;;;;;;;;;;21.20;44.70;;;;;;5114123;28;19924;-39
2022/01/14 04:19:54;;;;;;;;;;;21.20;44.70;;;;;;5113843;28;20391;-42
2022/01/14 04:22:21;;;;;;;;;;;21.20;44.70;;;;;;5113060;28;20026;-41
2022/01/14 04:24:48;;;;;;;;;;;21.20;44.80;;;;;;5115943;28;19979;-45
2022/01/14 04:27:14;;;;;;;;;;;21.20;44.80;;;;;;5130155;28;20391;-39
2022/01/14 04:29:41;;;;;;;;;;;21.20;44.80;;;;;;5116762;28;19973;-39
2022/01/14 04:32:08;;;;;;;;;;;21.20;44.80;;;;;;5079241;28;19950;-39
2022/01/14 04:34:37;;;;;;;;;;;21.20;44.80;;;;;;5112819;28;20022;-39
2022/01/14 04:37:04;;;;;;;;;;;21.20;44.80;;;;;;5113839;28;19953;-39
2022/01/14 04:39:31;;;;;;;;;;;21.20;44.80;;;;;;5115779;28;19924;-41
2022/01/14 04:42:01;;;;;;;;;;;21.20;44.80;;;;;;5113986;28;19931;-40
2022/01/14 04:44:28;;;;;;;;;;;21.20;44.80;;;;;;5132525;28;19924;-40
2022/01/14 04:47:13;;;;;;;;;;;21.20;44.80;;;;;;5116093;28;19928;-41
2022/01/14 04:49:41;;;;;;;;;;;21.20;44.80;;;;;;5114201;28;19924;-41
2022/01/14 04:52:08;;;;;;;;;;;21.20;44.80;;;;;;5094888;28;20037;-41
2022/01/14 04:54:35;;;;;;;;;;;21.10;44.70;;;;;;5112792;28;19927;-39
2022/01/14 04:57:03;;;;;;;;;;;21.20;44.80;;;;;;5113653;28;19970;-40
2022/01/14 04:59:30;;;;;;;;;;;21.10;44.70;;;;;;5115098;28;20019;-43
2022/01/14 05:01:58;;;;;;;;;;;21.10;44.70;;;;;;5116922;27;19949;-40
2022/01/14 05:04:25;;;;;;;;;;;21.10;44.70;;;;;;5118035;27;19928;-39
2022/01/14 05:06:58;;;;;;;;;;;21.10;44.80;;;;;;5116999;27;20334;-41
2022/01/14 05:09:31;;;;;;;;;;;21.10;44.80;;;;;;5118582;27;19931;-39
2022/01/14 05:12:06;;;;;;;;;;;21.10;44.80;;;;;;5117834;27;19924;-40
2022/01/14 05:14:33;;;;;;;;;;;21.10;44.80;;;;;;5117304;27;19924;-40
2022/01/14 05:17:00;;;;;;;;;;;21.10;44.80;;;;;;5117619;27;19972;-40
2022/01/14 05:19:27;;;;;;;;;;;21.10;44.80;;;;;;5116926;27;19973;-41
2022/01/14 05:21:54;;;;;;;;;;;21.10;44.80;;;;;;5116877;27;20440;-38
2022/01/14 05:24:23;;;;;;;;;;;21.10;44.80;;;;;;5115961;28;19924;-39
2022/01/14 05:26:50;;;;;;;;;;;21.10;44.80;;;;;;5117283;27;19924;-41
2022/01/14 05:29:17;;;;;;;;;;;21.10;44.80;;;;;;5118278;27;19962;-41
2022/01/14 05:31:48;;;;;;;;;;;21.10;44.80;;;;;;5116179;28;20225;-39
2022/01/14 05:34:15;;;;;;;;;;;21.10;44.80;;;;;;5116340;28;20332;-39
2022/01/14 05:36:43;;;;;;;;;;;21.10;44.80;;;;;;5115644;28;20007;-39
2022/01/14 05:39:10;;;;;;;;;;;21.10;44.80;;;;;;5117215;27;19923;-38
2022/01/14 05:41:37;;;;;;;;;;;21.10;44.80;;;;;;5118091;27;19931;-39
2022/01/14 05:44:05;;;;;;;;;;;21.10;44.80;;;;;;5116928;27;19931;-39
2022/01/14 05:46:32;;;;;;;;;;;21.00;44.70;;;;;;5133850;27;19924;-39
2022/01/14 05:48:59;;;;;;;;;;;21.10;44.80;;;;;;5116156;27;19923;-38
2022/01/14 05:51:26;;;;;;;;;;;21.10;44.80;;;;;;5116381;27;19924;-38
2022/01/14 05:53:53;;;;;;;;;;;21.10;44.80;;;;;;5135138;27;19974;-38
2022/01/14 05:56:20;;;;;;;;;;;21.10;44.80;;;;;;5132162;27;19924;-38
2022/01/14 05:58:47;;;;;;;;;;;21.10;44.80;;;;;;5118393;27;20010;-38
2022/01/14 06:01:14;;;;;;;;;;;21.10;44.80;;;;;;5115562;28;19985;-38
2022/01/14 06:03:41;;;;;;;;;;;21.10;44.80;;;;;;5117106;27;19928;-39
2022/01/14 06:06:08;;;;;;;;;;;21.10;44.80;;;;;;5117508;27;19930;-39
2022/01/14 06:08:35;;;;;;;;;;;21.10;44.80;;;;;;5116555;27;19982;-39
2022/01/14 06:11:03;;;;;;;;;;;21.10;44.80;;;;;;5116739;28;19923;-41
2022/01/14 06:13:33;;;;;;;;;;;21.10;44.90;;;;;;5117276;27;19967;-39
2022/01/14 06:16:00;;;;;;;;;;;21.00;44.80;;;;;;5126397;27;19923;-39
2022/01/14 06:18:27;;;;;;;;;;;21.00;44.80;;;;;;5123749;27;19924;-39
2022/01/14 06:20:54;;;;;;;;;;;21.00;44.80;;;;;;5121580;27;19923;-40
2022/01/14 06:23:21;;;;;;;;;;;21.00;44.80;;;;;;5110010;28;19931;-40
2022/01/14 06:26:08;;;;;;;;;;;21.00;44.80;;;;;;5114536;28;19924;-40
2022/01/14 06:28:35;;;;;;;;;;;21.00;44.80;;;;;;5115670;27;19928;-39
2022/01/14 06:31:02;;;;;;;;;;;21.00;44.80;;;;;;5114555;28;19966;-39
2022/01/14 06:33:29;;;;;;;;;;;21.00;44.80;;;;;;5114488;28;19930;-43
2022/01/14 06:35:56;;;;;;;;;;;21.00;44.80;;;;;;5115922;27;19924;-41
2022/01/14 06:38:23;;;;;;;;;;;21.00;44.80;;;;;;5115802;27;20324;-40
2022/01/14 06:40:50;;;;;;;;;;;21.00;44.80;;;;;;5117179;27;19986;-39
2022/01/14 06:43:17;;;;;;;;;;;21.00;44.80;;;;;;5114875;28;19977;-40
2022/01/14 06:45:44;;;;;;;;;;;21.00;44.80;;;;;;5115211;27;20329;-42
2022/01/14 06:48:11;;;;;;;;;;;21.00;44.80;;;;;;5115568;27;19928;-40
2022/01/14 06:50:38;;;;;;;;;;;21.00;44.80;;;;;;5114617;28;19924;-39
2022/01/14 06:53:05;;;;;;;;;;;21.00;44.80;;;;;;5114871;28;20340;-39
2022/01/14 06:55:32;;;;;;;;;;;21.00;44.80;;;;;;5116600;27;19923;-40
2022/01/14 06:57:59;;;;;;;;;;;21.00;44.80;;;;;;5132924;27;20371;-40
2022/01/14 07:00:28;;;;;;;;;;;21.00;44.80;;;;;;5117016;27;20379;-41
2022/01/14 07:02:55;;;;;;;;;;;21.00;44.80;;;;;;5113988;28;19977;-40
2022/01/14 07:05:22;;;;;;;;;;;21.00;44.80;;;;;;5114972;27;19949;-41
2022/01/14 07:07:49;;;;;;;;;;;21.00;44.80;;;;;;5096838;28;19927;-42
2022/01/14 07:10:16;;;;;;;;;;;21.00;44.80;;;;;;5082053;28;20023;-41
2022/01/14 07:12:44;;;;;;;;;;;21.00;44.80;;;;;;5113742;28;20391;-42
2022/01/14 07:15:13;;;;;;;;;;;21.00;44.80;;;;;;5116082;27;19923;-39
2022/01/14 07:17:40;;;;;;;;;;;21.00;44.80;;;;;;5095581;28;19924;-40
2022/01/14 07:20:12;;;;;;;;;;;21.00;44.80;;;;;;5114748;27;19924;-44
2022/01/14 07:22:40;;;;;;;;;;;21.00;44.80;;;;;;5115119;28;19923;-46
2022/01/14 07:25:07;;;;;;;;;;;21.00;44.80;;;;;;5120542;27;19923;-41
2022/01/14 07:27:34;;;;;;;;;;;21.00;44.80;;;;;;5128153;27;20371;-40
2022/01/14 07:30:03;;;;;;;;;;;21.00;44.80;;;;;;5096958;28;19927;-40
2022/01/14 07:32:30;;;;;;;;;;;21.00;44.80;;;;;;5118093;27;19983;-39
2022/01/14 07:34:57;;;;;;;;;;;21.00;45.40;;;;;;5127150;27;19924;-40
2022/01/14 07:37:24;;;;;;;;;;;21.00;44.80;;;;;;5113562;28;20367;-40
2022/01/14 07:39:51;;;;;;;;;;;21.00;44.80;;;;;;5113166;28;19924;-40
2022/01/14 07:42:18;;;;;;;;;;;21.00;44.80;;;;;;5113615;28;20416;-42
2022/01/14 07:44:45;;;;;;;;;;;21.00;44.80;;;;;;5115065;28;19923;-41
2022/01/14 07:47:12;;;;;;;;;;;21.00;44.80;;;;;;5113553;28;19984;-42
2022/01/14 07:49:39;;;;;;;;;;;21.10;44.80;;;;;;5131629;27;19924;-41
2022/01/14 07:52:06;;;;;;;;;;;21.00;44.70;;;;;;5095445;28;19931;-40
2022/01/14 07:54:33;;;;;;;;;;;21.00;44.70;;;;;;5113792;28;20371;-40
2022/01/14 07:57:01;;;;;;;;;;;21.00;44.60;;;;;;5114773;28;20371;-42
2022/01/14 07:59:30;;;;;;;;;;;21.00;44.60;;;;;;5113066;28;20378;-40
2022/01/14 08:01:58;;;;;;;;;;;21.00;44.60;;;;;;5112892;28;20010;-42
2022/01/14 08:04:26;;;;;;;;;;;21.00;44.60;;;;;;5114220;28;20314;-42
2022/01/14 08:06:54;;;;;;;;;;;21.00;44.60;;;;;;5113360;28;19928;-40
2022/01/14 08:09:22;;;;;;;;;;;21.00;44.60;;;;;;5112993;28;19924;-40
2022/01/14 08:11:52;;;;;;;;;;;21.00;44.60;;;;;;5114395;28;20010;-39
2022/01/14 08:14:24;;;;;;;;;;;21.10;44.60;;;;;;5112924;28;19924;-41
2022/01/14 08:16:51;;;;;;;;;;;21.10;44.60;;;;;;5115450;28;19931;-44
2022/01/14 08:19:18;;;;;;;;;;;21.10;44.60;;;;;;5113885;28;19928;-42
2022/01/14 08:21:45;;;;;;;;;;;21.10;44.60;;;;;;5112620;28;19955;-46
2022/01/14 08:24:12;;;;;;;;;;;21.10;44.50;;;;;;5121801;28;20003;-42
2022/01/14 08:26:38;;;;;;;;;;;21.10;44.50;;;;;;5119679;28;19951;-42
2022/01/14 08:29:05;;;;;;;;;;;21.10;44.50;;;;;;5108568;28;20299;-44
2022/01/14 08:31:32;;;;;;;;;;;21.10;44.40;;;;;;5115511;28;19923;-42
2022/01/14 08:34:00;;;;;;;;;;;21.10;44.50;;;;;;5114648;28;19927;-43
2022/01/14 08:36:30;;;;;;;;;;;21.10;44.40;;;;;;5117010;28;19977;-44
2022/01/14 08:38:59;;;;;;;;;;;21.10;44.40;;;;;;5119452;27;19965;-47
2022/01/14 08:41:30;;;;;;;;;;;21.10;44.40;;;;;;5117697;27;20014;-49
2022/01/14 08:43:58;;;;;;;;;;;21.10;44.30;;;;;;5116752;28;20321;-46
2022/01/14 08:46:45;;;;;;;;;;;21.10;44.30;;;;;;5120344;27;20010;-49
2022/01/14 08:49:12;;;;;;;;;;;21.10;44.40;;;;;;5132660;27;19930;-43
2022/01/14 08:51:39;;;;;;;;;;;21.10;44.30;;;;;;5117234;27;19923;-41
2022/01/14 08:54:07;;;;;;;;;;;21.20;44.40;;;;;;5116980;28;20041;-45
2022/01/14 08:56:34;;;;;;;;;;;21.10;44.30;;;;;;5118079;27;19939;-47
2022/01/14 08:59:01;;;;;;;;;;;21.20;44.30;;;;;;5116924;27;20010;-43
2022/01/14 09:01:28;;;;;;;;;;;21.20;44.30;;;;;;5116778;28;19924;-45
2022/01/14 09:03:55;;;;;;;;;;;21.20;44.30;;;;;;5117386;27;20358;-47
2022/01/14 09:06:22;;;;;;;;;;;21.20;44.20;;;;;;5117937;27;20329;-43
2022/01/14 09:08:49;;;;;;;;;;;21.20;44.20;;;;;;5100736;28;19977;-42
2022/01/14 09:11:16;;;;;;;;;;;21.20;44.20;;;;;;5131010;27;20013;-47
2022/01/14 09:13:43;;;;;;;;;;;21.20;44.20;;;;;;5118899;27;19972;-41
2022/01/14 09:16:10;;;;;;;;;;;21.20;44.20;;;;;;5116292;28;19962;-39
2022/01/14 09:18:37;;;;;;;;;;;21.20;44.20;;;;;;5117080;27;19924;-43
2022/01/14 09:21:05;;;;;;;;;;;21.20;44.10;;;;;;5117077;27;19924;-43
2022/01/14 09:23:33;;;;;;;;;;;21.30;44.20;;;;;;5117298;27;20010;-45
2022/01/14 09:26:01;;;;;;;;;;;21.30;44.10;;;;;;5116920;27;19977;-41
2022/01/14 09:28:28;;;;;;;;;;;21.30;44.10;;;;;;5115721;28;20453;-43
2022/01/14 09:30:56;;;;;;;;;;;21.30;44.10;;;;;;5115796;28;20538;-40
2022/01/14 09:33:24;;;;;;;;;;;21.30;44.00;;;;;;5116654;27;19924;-42
2022/01/14 09:35:51;;;;;;;;;;;21.30;44.00;;;;;;5117118;27;20387;-43
2022/01/14 09:38:18;;;;;;;;;;;21.30;44.00;;;;;;5116648;27;19930;-41
2022/01/14 09:40:48;;;;;;;;;;;21.30;43.90;;;;;;5117822;27;19924;-43
2022/01/14 09:43:15;;;;;;;;;;;21.40;44.00;;;;;;5117291;27;19931;-44
2022/01/14 09:46:01;;;;;;;;;;;21.30;43.90;;;;;;5115392;27;19930;-44
2022/01/14 09:48:28;;;;;;;;;;;21.40;43.90;;;;;;5102233;27;20255;-43
2022/01/14 09:50:55;;;;;;;;;;;21.40;43.90;;;;;;5130359;27;19923;-42
2022/01/14 09:53:24;;;;;;;;;;;21.40;43.80;;;;;;5116262;27;19945;-39
2022/01/14 09:55:51;;;;;;;;;;;21.40;43.80;;;;;;5116580;27;19970;-41
2022/01/14 09:58:18;;;;;;;;;;;21.40;43.80;;;;;;5133339;27;19974;-41
2022/01/14 10:00:45;;;;;;;;;;;21.40;43.80;;;;;;5118008;27;19972;-43
2022/01/14 10:03:18;;;;;;;;;;;21.40;43.70;;;;;;5115724;28;20331;-43
2022/01/14 10:05:48;;;;;;;;;;;21.50;43.70;;;;;;5115193;28;20379;-44
2022/01/14 10:08:20;;;;;;;;;;;21.50;43.70;;;;;;5115405;28;19974;-47
2022/01/14 10:10:50;;;;;;;;;;;21.50;43.70;;;;;;5115579;28;19924;-42
2022/01/14 10:13:21;;;;;;;;;;;21.50;43.60;;;;;;5115269;27;19923;-39
2022/01/14 10:15:53;;;;;;;;;;;21.50;43.60;;;;;;5134401;27;20015;-40
2022/01/14 10:18:21;;;;;;;;;;;21.50;43.50;;;;;;5114985;27;19927;-39
2022/01/14 10:20:49;;;;;;;;;;;21.50;43.50;;;;;;5097888;28;19923;-40
2022/01/14 10:23:16;;;;;;;;;;;21.50;43.50;;;;;;5116039;27;19933;-41
2022/01/14 10:25:58;;;;;;;;;;;21.60;43.60;;;;;;5117103;27;19931;-43
2022/01/14 10:28:25;;;;;;;;;;;21.60;43.50;;;;;;5117765;27;19953;-44
2022/01/14 10:30:52;;;;;;;;;;;21.60;43.40;;;;;;5098093;28;20006;-44
2022/01/14 10:33:22;;;;;;;;;;;21.60;43.40;;;;;;5099606;28;19981;-39
2022/01/14 10:35:49;;;;;;;;;;;21.60;43.30;;;;;;5129459;27;20413;-39
2022/01/14 10:38:19;;;;;;;;;;;21.60;43.30;;;;;;5121036;27;20444;-40
2022/01/14 10:40:56;;;;;;;;;;;21.60;43.20;;;;;;5098007;28;19927;-40
2022/01/14 10:43:30;;;;;;;;;;;21.70;43.30;;;;;;5115553;27;19931;-43
2022/01/14 10:45:57;;;;;;;;;;;21.70;43.30;;;;;;5115903;27;19931;-41
2022/01/14 10:48:32;;;;;;;;;;;21.70;43.80;;;;;;5114321;28;19930;-40
2022/01/14 10:51:07;;;;;;;;;;;21.70;43.20;;;;;;5128931;27;20279;-43
2022/01/14 10:53:36;;;;;;;;;;;21.70;43.10;;;;;;5121179;27;19928;-41
2022/01/14 10:56:04;;;;;;;;;;;21.70;43.10;;;;;;5113588;28;19999;-41
2022/01/14 10:58:32;;;;;;;;;;;21.80;43.10;;;;;;5124472;27;19930;-39
2022/01/14 11:01:06;;;;;;;;;;;21.80;43.10;;;;;;5121206;27;19968;-40
2022/01/14 11:03:35;;;;;;;;;;;21.80;43.00;;;;;;5115191;27;19924;-40
2022/01/14 11:06:21;;;;;;;;;;;21.80;43.00;;;;;;5114113;28;19923;-41
2022/01/14 11:08:49;;;;;;;;;;;21.80;42.90;;;;;;5125530;27;20325;-41
2022/01/14 11:11:16;;;;;;;;;;;21.80;42.90;;;;;;5130626;27;19966;-43
2022/01/14 11:13:44;;;;;;;;;;;21.80;42.80;;;;;;5122046;27;20391;-41
2022/01/14 11:16:11;;;;;;;;;;;21.90;42.90;;;;;;5121954;27;20318;-40
2022/01/14 11:18:39;;;;;;;;;;;21.90;42.80;;;;;;5123493;27;19924;-46
2022/01/14 11:23:52;;;;;;;;;;;21.90;42.70;;;;;;5121131;27;19969;-43
2022/01/14 11:26:20;;;;;;;;;;;22.00;42.80;;;;;;5115829;27;19972;-43
2022/01/14 11:28:48;;;;;;;;;;;22.00;42.80;;;;;;5115076;28;19924;-43
2022/01/14 11:31:28;;;;;;;;;;;22.00;42.70;;;;;;5114688;27;19980;-40
2022/01/14 11:33:56;;;;;;;;;;;22.00;42.70;;;;;;5114695;27;19931;-41
2022/01/14 11:36:24;;;;;;;;;;;22.00;42.60;;;;;;5115738;27;19931;-41
2022/01/14 11:38:51;;;;;;;;;;;22.00;42.60;;;;;;5114928;27;19928;-43
2022/01/14 11:41:19;;;;;;;;;;;22.00;42.60;;;;;;5114662;28;20302;-43
2022/01/14 11:43:49;;;;;;;;;;;22.00;42.60;;;;;;5117272;27;20037;-40
2022/01/14 11:46:28;;;;;;;;;;;22.00;42.60;;;;;;5114755;28;19932;-44
2022/01/14 11:48:56;;;;;;;;;;;22.00;42.60;;;;;;5115742;28;19934;-44
2022/01/14 11:51:23;;;;;;;;;;;22.00;42.60;;;;;;5114565;27;19946;-44
2022/01/14 11:53:54;;;;;;;;;;;22.00;42.50;;;;;;5114599;28;19931;-41
2022/01/14 11:56:31;;;;;;;;;;;22.00;42.50;;;;;;5115707;27;19924;-43
2022/01/14 11:59:16;;;;;;;;;;;22.00;43.10;;;;;;5131859;27;20018;-49
2022/01/14 12:01:44;;;;;;;;;;;22.00;42.40;;;;;;5114419;28;19973;-43
2022/01/14 12:04:11;;;;;;;;;;;22.00;42.40;;;;;;5115519;28;19959;-44
2022/01/14 12:06:51;;;;;;;;;;;22.10;42.50;;;;;;5114914;28;19923;-40
2022/01/14 12:09:18;;;;;;;;;;;22.10;42.50;;;;;;5133758;27;19924;-41
2022/01/14 12:12:05;;;;;;;;;;;22.10;42.50;;;;;;5118841;27;20276;-41
2022/01/14 12:14:43;;;;;;;;;;;22.10;42.40;;;;;;5117270;28;19995;-40
2022/01/14 12:17:13;;;;;;;;;;;22.10;42.40;;;;;;5119819;27;20379;-41
2022/01/14 12:19:40;;;;;;;;;;;22.10;42.40;;;;;;5133114;27;20299;-43
2022/01/14 12:22:10;;;;;;;;;;;22.10;42.40;;;;;;5117266;28;19949;-43
2022/01/14 12:24:37;;;;;;;;;;;22.10;42.40;;;;;;5119364;27;19924;-42
2022/01/14 12:27:08;;;;;;;;;;;22.10;42.40;;;;;;5118161;27;19931;-42
2022/01/14 12:29:35;;;;;;;;;;;22.10;42.40;;;;;;5118382;27;20010;-42
2022/01/14 12:32:21;;;;;;;;;;;22.10;42.30;;;;;;5117876;27;19924;-41
2022/01/14 12:34:48;;;;;;;;;;;22.10;42.30;;;;;;5118722;27;20324;-43
2022/01/14 12:37:21;;;;;;;;;;;22.10;42.30;;;;;;5117383;27;19923;-45
2022/01/14 12:39:49;;;;;;;;;;;22.10;42.20;;;;;;5101121;27;20383;-43
2022/01/14 12:42:17;;;;;;;;;;;22.10;42.20;;;;;;5117102;28;20264;-40
2022/01/14 12:44:46;;;;;;;;;;;22.10;42.20;;;;;;5118004;27;20395;-41
2022/01/14 12:47:22;;;;;;;;;;;22.20;42.30;;;;;;5118423;27;19947;-40
2022/01/14 12:49:49;;;;;;;;;;;22.20;42.30;;;;;;5117081;28;19969;-41
2022/01/14 12:52:25;;;;;;;;;;;22.20;42.30;;;;;;5116889;28;19928;-40
2022/01/14 12:54:52;;;;;;;;;;;22.20;42.50;;;;;;5098716;28;19951;-42
2022/01/14 12:57:24;;;;;;;;;;;22.20;42.20;;;;;;5116175;28;19974;-42
2022/01/14 12:59:52;;;;;;;;;;;22.20;42.20;;;;;;5132817;27;19968;-41
2022/01/14 13:02:26;;;;;;;;;;;22.20;42.20;;;;;;5117469;27;19980;-46
2022/01/14 13:05:15;;;;;;;;;;;22.20;42.90;;;;;;5098695;28;19931;-42
2022/01/14 13:07:44;;;;;;;;;;;22.20;42.20;;;;;;5135711;27;19928;-40
2022/01/14 13:10:12;;;;;;;;;;;22.20;42.20;;;;;;5117403;27;20023;-42
2022/01/14 13:12:41;;;;;;;;;;;22.20;42.10;;;;;;5116523;27;20011;-41
2022/01/14 13:15:10;;;;;;;;;;;22.20;42.10;;;;;;5132285;27;20367;-39
2022/01/14 13:17:39;;;;;;;;;;;22.20;42.10;;;;;;5135774;27;19928;-39
2022/01/14 13:20:07;;;;;;;;;;;22.30;42.20;;;;;;5133810;27;20409;-41
2022/01/14 13:22:35;;;;;;;;;;;22.20;42.10;;;;;;5121514;27;20022;-39
2022/01/14 13:25:22;;;;;;;;;;;22.30;42.20;;;;;;5100105;28;19923;-39
2022/01/14 13:27:56;;;;;;;;;;;22.30;42.20;;;;;;5117019;27;19972;-41
2022/01/14 13:30:26;;;;;;;;;;;22.30;42.20;;;;;;5116975;27;19924;-40
2022/01/14 13:32:54;;;;;;;;;;;22.30;42.10;;;;;;5117310;27;19976;-40
2022/01/14 13:35:21;;;;;;;;;;;22.30;42.10;;;;;;5117846;27;19924;-39
2022/01/14 13:37:50;;;;;;;;;;;22.30;42.10;;;;;;5097964;28;20014;-39
2022/01/14 13:40:19;;;;;;;;;;;22.30;42.10;;;;;;5128063;27;19935;-40
2022/01/14 13:43:05;;;;;;;;;;;22.30;42.10;;;;;;5122362;27;19930;-41
2022/01/14 13:45:32;;;;;;;;;;;22.30;42.10;;;;;;5118041;27;19924;-43
2022/01/14 13:48:09;;;;;;;;;;;22.30;42.10;;;;;;5126362;27;19923;-39
2022/01/14 13:50:41;;;;;;;;;;;22.30;42.10;;;;;;5122132;27;20448;-40
2022/01/14 13:53:09;;;;;;;;;;;22.30;42.10;;;;;;5126200;27;19928;-41
2022/01/14 13:55:41;;;;;;;;;;;22.30;42.10;;;;;;5133916;27;19923;-39
2022/01/14 13:58:13;;;;;;;;;;;22.30;42.10;;;;;;5106668;28;19935;-41
2022/01/14 14:00:41;;;;;;;;;;;22.30;42.20;;;;;;5118026;27;20010;-39
2022/01/14 14:03:17;;;;;;;;;;;22.30;42.20;;;;;;5097461;28;19976;-39
2022/01/14 14:05:49;;;;;;;;;;;22.30;42.20;;;;;;5116792;27;19962;-39
2022/01/14 14:08:37;;;;;;;;;;;22.30;42.20;;;;;;5117676;27;20034;-42
2022/01/14 14:16:48;;;;;;;;;;;22.30;42.10;;;;;;5117259;27;19931;-42
2022/01/14 14:19:15;;;;;;;;;;;22.30;42.20;;;;;;5109903;27;19928;-41
2022/01/14 14:22:09;;;;;;;;;;;22.40;42.20;;;;;;5094250;28;19924;-40
2022/01/14 14:24:37;;;;;;;;;;;22.40;42.20;;;;;;5095266;28;20002;-40
2022/01/14 14:27:12;;;;;;;;;;;22.30;42.10;;;;;;5095268;28;19924;-40
2022/01/14 14:29:43;;;;;;;;;;;22.40;42.30;;;;;;5096636;28;20442;-43
2022/01/14 14:32:14;;;;;;;;;;;22.40;42.20;;;;;;5093706;28;19995;-41
2022/01/14 14:34:41;;;;;;;;;;;22.40;42.30;;;;;;5095250;28;19974;-40
2022/01/14 14:37:08;;;;;;;;;;;22.40;42.30;;;;;;5077532;28;20395;-42
2022/01/14 14:39:35;;;;;;;;;;;22.30;42.20;;;;;;5094132;28;20011;-45
2022/01/14 14:42:02;;;;;;;;;;;22.30;42.20;;;;;;5094497;28;20283;-47
2022/01/14 14:44:29;;;;;;;;;;;22.30;42.20;;;;;;5060761;28;19931;-40
2022/01/14 14:46:56;;;;;;;;;;;22.30;42.30;;;;;;5095013;28;19975;-44
2022/01/14 14:49:23;;;;;;;;;;;22.30;42.30;;;;;;5094237;28;19928;-45
2022/01/14 14:51:50;;;;;;;;;;;22.30;42.30;;;;;;5095395;28;20011;-43
2022/01/14 14:54:17;;;;;;;;;;;22.30;42.30;;;;;;5100969;28;20375;-48
2022/01/14 14:56:44;;;;;;;;;;;22.30;42.30;;;;;;5105755;28;20264;-43
2022/01/14 14:59:11;;;;;;;;;;;22.30;42.30;;;;;;5094845;28;19924;-45